sensor_id;sensor_type;location;lat;lon;timestamp;P1;durP1;ratioP1;P2;durP2;ratioP2
85691;SDS011;76122;47.806;18.914;2024-02-14T05:37:15;16.97;;;8.57;;
85691;SDS011;76122;47.806;18.914;2024-02-14T05:39:40;17.58;;;10.35;;
85691;SDS011;76122;47.806;18.914;2024-02-14T05:42:06;17.10;;;9.57;;
85691;SDS011;76122;47.806;18.914;2024-02-14T05:44:31;21.50;;;9.73;;
85691;SDS011;76122;47.806;18.914;2024-02-14T05:46:57;16.60;;;9.57;;
85691;SDS011;76122;47.806;18.914;2024-02-14T05:49:22;20.27;;;10.50;;
85691;SDS011;76122;47.806;18.914;2024-02-14T05:51:47;21.35;;;10.70;;
85691;SDS011;76122;47.806;18.914;2024-02-14T05:54:13;25.43;;;13.33;;
85691;SDS011;76122;47.806;18.914;2024-02-14T05:56:38;27.33;;;14.17;;
85691;SDS011;76122;47.806;18.914;2024-02-14T05:59:04;25.43;;;13.20;;
85691;SDS011;76122;47.806;18.914;2024-02-14T06:01:29;23.50;;;13.03;;
85691;SDS011;76122;47.806;18.914;2024-02-14T06:03:55;23.83;;;12.20;;
85691;SDS011;76122;47.806;18.914;2024-02-14T06:06:20;20.73;;;11.63;;
85691;SDS011;76122;47.806;18.914;2024-02-14T06:08:46;21.10;;;11.23;;
85691;SDS011;76122;47.806;18.914;2024-02-14T06:11:11;28.10;;;12.40;;
85691;SDS011;76122;47.806;18.914;2024-02-14T06:13:39;32.40;;;14.38;;
85691;SDS011;76122;47.806;18.914;2024-02-14T06:16:04;31.08;;;14.05;;
85691;SDS011;76122;47.806;18.914;2024-02-14T06:18:30;43.63;;;17.33;;
85691;SDS011;76122;47.806;18.914;2024-02-14T06:20:56;38.55;;;17.33;;
85691;SDS011;76122;47.806;18.914;2024-02-14T06:23:21;32.38;;;15.10;;
85691;SDS011;76122;47.806;18.914;2024-02-14T06:25:46;28.53;;;13.50;;
85691;SDS011;76122;47.806;18.914;2024-02-14T06:28:12;42.77;;;18.50;;
85691;SDS011;76122;47.806;18.914;2024-02-14T06:30:37;87.80;;;35.93;;
85691;SDS011;76122;47.806;18.914;2024-02-14T06:33:02;76.77;;;31.70;;
85691;SDS011;76122;47.806;18.914;2024-02-14T06:35:29;52.13;;;23.63;;
85691;SDS011;76122;47.806;18.914;2024-02-14T06:37:54;48.25;;;22.87;;
85691;SDS011;76122;47.806;18.914;2024-02-14T06:40:20;48.13;;;22.87;;
85691;SDS011;76122;47.806;18.914;2024-02-14T06:42:45;38.87;;;19.30;;
85691;SDS011;76122;47.806;18.914;2024-02-14T06:45:10;29.48;;;15.75;;
85691;SDS011;76122;47.806;18.914;2024-02-14T06:47:36;28.85;;;14.35;;
85691;SDS011;76122;47.806;18.914;2024-02-14T06:50:01;27.17;;;14.97;;
85691;SDS011;76122;47.806;18.914;2024-02-14T06:52:26;32.43;;;15.93;;
85691;SDS011;76122;47.806;18.914;2024-02-14T06:54:52;26.30;;;14.73;;
85691;SDS011;76122;47.806;18.914;2024-02-14T06:57:17;24.80;;;13.20;;
85691;SDS011;76122;47.806;18.914;2024-02-14T06:59:43;27.00;;;13.67;;
85691;SDS011;76122;47.806;18.914;2024-02-14T07:02:08;23.15;;;11.82;;
85691;SDS011;76122;47.806;18.914;2024-02-14T07:04:34;25.27;;;12.17;;
85691;SDS011;76122;47.806;18.914;2024-02-14T07:06:59;20.03;;;11.33;;
85691;SDS011;76122;47.806;18.914;2024-02-14T07:09:25;19.77;;;10.95;;
85691;SDS011;76122;47.806;18.914;2024-02-14T07:11:51;25.73;;;13.17;;
85691;SDS011;76122;47.806;18.914;2024-02-14T07:14:18;24.25;;;12.20;;
85691;SDS011;76122;47.806;18.914;2024-02-14T07:16:44;23.70;;;12.47;;
85691;SDS011;76122;47.806;18.914;2024-02-14T07:19:09;21.33;;;10.90;;
85691;SDS011;76122;47.806;18.914;2024-02-14T07:21:35;32.40;;;15.13;;
85691;SDS011;76122;47.806;18.914;2024-02-14T07:24:02;37.90;;;17.73;;
85691;SDS011;76122;47.806;18.914;2024-02-14T07:26:29;37.00;;;17.40;;
85691;SDS011;76122;47.806;18.914;2024-02-14T07:28:54;41.27;;;18.00;;
85691;SDS011;76122;47.806;18.914;2024-02-14T07:31:19;44.17;;;20.67;;
85691;SDS011;76122;47.806;18.914;2024-02-14T07:33:45;65.37;;;27.25;;
85691;SDS011;76122;47.806;18.914;2024-02-14T07:36:11;49.55;;;23.50;;
85691;SDS011;76122;47.806;18.914;2024-02-14T07:38:37;44.03;;;20.00;;
85691;SDS011;76122;47.806;18.914;2024-02-14T07:41:02;30.95;;;15.25;;
85691;SDS011;76122;47.806;18.914;2024-02-14T07:43:27;24.40;;;13.00;;
85691;SDS011;76122;47.806;18.914;2024-02-14T07:45:53;23.77;;;13.57;;
85691;SDS011;76122;47.806;18.914;2024-02-14T07:48:18;27.50;;;14.27;;
85691;SDS011;76122;47.806;18.914;2024-02-14T07:50:44;28.73;;;15.87;;
85691;SDS011;76122;47.806;18.914;2024-02-14T07:53:09;26.33;;;15.57;;
85691;SDS011;76122;47.806;18.914;2024-02-14T07:55:35;26.42;;;16.45;;
85691;SDS011;76122;47.806;18.914;2024-02-14T07:58:01;30.70;;;17.67;;
85691;SDS011;76122;47.806;18.914;2024-02-14T08:00:26;32.40;;;18.62;;
85691;SDS011;76122;47.806;18.914;2024-02-14T08:02:52;34.63;;;17.83;;
85691;SDS011;76122;47.806;18.914;2024-02-14T08:05:17;35.07;;;16.67;;
85691;SDS011;76122;47.806;18.914;2024-02-14T08:07:44;31.37;;;16.20;;
85691;SDS011;76122;47.806;18.914;2024-02-14T08:10:11;32.60;;;16.12;;
85691;SDS011;76122;47.806;18.914;2024-02-14T08:12:36;30.37;;;15.13;;
85691;SDS011;76122;47.806;18.914;2024-02-14T08:15:02;28.90;;;14.53;;
85691;SDS011;76122;47.806;18.914;2024-02-14T08:17:30;23.50;;;12.77;;
85691;SDS011;76122;47.806;18.914;2024-02-14T08:19:56;24.12;;;11.90;;
85691;SDS011;76122;47.806;18.914;2024-02-14T08:22:22;22.53;;;11.43;;
85691;SDS011;76122;47.806;18.914;2024-02-14T08:24:47;20.77;;;11.00;;
85691;SDS011;76122;47.806;18.914;2024-02-14T08:27:12;19.90;;;10.43;;
85691;SDS011;76122;47.806;18.914;2024-02-14T08:29:38;20.93;;;10.73;;
85691;SDS011;76122;47.806;18.914;2024-02-14T08:32:03;20.40;;;11.03;;
85691;SDS011;76122;47.806;18.914;2024-02-14T08:34:29;26.92;;;10.75;;
85691;SDS011;76122;47.806;18.914;2024-02-14T08:36:55;18.73;;;9.55;;
85691;SDS011;76122;47.806;18.914;2024-02-14T08:39:20;19.25;;;10.48;;
85691;SDS011;76122;47.806;18.914;2024-02-14T08:41:46;24.73;;;10.30;;
85691;SDS011;76122;47.806;18.914;2024-02-14T08:44:12;21.87;;;10.37;;
85691;SDS011;76122;47.806;18.914;2024-02-14T08:46:40;20.65;;;11.60;;
85691;SDS011;76122;47.806;18.914;2024-02-14T08:49:07;24.02;;;12.40;;
85691;SDS011;76122;47.806;18.914;2024-02-14T08:51:36;27.00;;;13.13;;
85691;SDS011;76122;47.806;18.914;2024-02-14T08:54:02;21.87;;;13.50;;
85691;SDS011;76122;47.806;18.914;2024-02-14T08:56:33;24.42;;;12.75;;
85691;SDS011;76122;47.806;18.914;2024-02-14T08:59:00;18.92;;;11.02;;
85691;SDS011;76122;47.806;18.914;2024-02-14T09:01:27;24.80;;;11.30;;
85691;SDS011;76122;47.806;18.914;2024-02-14T09:03:55;19.80;;;10.82;;
85691;SDS011;76122;47.806;18.914;2024-02-14T09:06:21;20.93;;;10.17;;
85691;SDS011;76122;47.806;18.914;2024-02-14T09:08:47;20.25;;;11.38;;
85691;SDS011;76122;47.806;18.914;2024-02-14T09:11:13;21.27;;;11.00;;
85691;SDS011;76122;47.806;18.914;2024-02-14T09:13:38;20.40;;;10.75;;
85691;SDS011;76122;47.806;18.914;2024-02-14T09:16:07;22.45;;;11.15;;
85691;SDS011;76122;47.806;18.914;2024-02-14T09:18:33;20.00;;;10.77;;
85691;SDS011;76122;47.806;18.914;2024-02-14T09:20:58;19.95;;;10.48;;
85691;SDS011;76122;47.806;18.914;2024-02-14T09:23:24;19.37;;;10.37;;
85691;SDS011;76122;47.806;18.914;2024-02-14T09:25:50;18.47;;;10.40;;
85691;SDS011;76122;47.806;18.914;2024-02-14T09:28:16;18.62;;;10.18;;
85691;SDS011;76122;47.806;18.914;2024-02-14T09:30:41;21.80;;;10.60;;
85691;SDS011;76122;47.806;18.914;2024-02-14T09:33:07;20.27;;;10.53;;
85691;SDS011;76122;47.806;18.914;2024-02-14T09:35:32;21.48;;;12.65;;
85691;SDS011;76122;47.806;18.914;2024-02-14T09:37:58;20.03;;;10.73;;
85691;SDS011;76122;47.806;18.914;2024-02-14T09:40:24;18.48;;;10.40;;
85691;SDS011;76122;47.806;18.914;2024-02-14T09:42:53;19.23;;;10.80;;
85691;SDS011;76122;47.806;18.914;2024-02-14T09:45:21;19.00;;;10.02;;
85691;SDS011;76122;47.806;18.914;2024-02-14T09:47:47;19.85;;;9.60;;
85691;SDS011;76122;47.806;18.914;2024-02-14T09:50:13;18.10;;;10.80;;
85691;SDS011;76122;47.806;18.914;2024-02-14T09:52:38;18.62;;;11.45;;
85691;SDS011;76122;47.806;18.914;2024-02-14T09:55:05;19.00;;;10.77;;
85691;SDS011;76122;47.806;18.914;2024-02-14T09:57:31;17.67;;;10.00;;
85691;SDS011;76122;47.806;18.914;2024-02-14T09:59:58;17.90;;;9.40;;
85691;SDS011;76122;47.806;18.914;2024-02-14T10:02:25;19.10;;;11.05;;
85691;SDS011;76122;47.806;18.914;2024-02-14T10:04:50;20.47;;;13.17;;
85691;SDS011;76122;47.806;18.914;2024-02-14T10:07:15;14.77;;;8.80;;
85691;SDS011;76122;47.806;18.914;2024-02-14T10:09:41;15.50;;;8.23;;
85691;SDS011;76122;47.806;18.914;2024-02-14T10:12:07;12.93;;;6.45;;
85691;SDS011;76122;47.806;18.914;2024-02-14T10:14:34;12.32;;;6.72;;
85691;SDS011;76122;47.806;18.914;2024-02-14T10:17:00;14.93;;;7.30;;
85691;SDS011;76122;47.806;18.914;2024-02-14T10:19:26;13.30;;;6.68;;
85691;SDS011;76122;47.806;18.914;2024-02-14T10:21:58;12.70;;;6.87;;
85691;SDS011;76122;47.806;18.914;2024-02-14T10:24:27;12.82;;;6.32;;
85691;SDS011;76122;47.806;18.914;2024-02-14T10:26:53;13.20;;;6.55;;
85691;SDS011;76122;47.806;18.914;2024-02-14T10:29:19;14.57;;;6.90;;
85691;SDS011;76122;47.806;18.914;2024-02-14T10:31:45;13.80;;;6.82;;
85691;SDS011;76122;47.806;18.914;2024-02-14T10:34:11;12.75;;;6.90;;
85691;SDS011;76122;47.806;18.914;2024-02-14T10:36:37;12.18;;;6.43;;
85691;SDS011;76122;47.806;18.914;2024-02-14T10:39:05;14.87;;;7.20;;
85691;SDS011;76122;47.806;18.914;2024-02-14T10:41:32;12.30;;;7.00;;
85691;SDS011;76122;47.806;18.914;2024-02-14T10:44:01;12.48;;;6.55;;
85691;SDS011;76122;47.806;18.914;2024-02-14T10:46:28;11.00;;;6.50;;
85691;SDS011;76122;47.806;18.914;2024-02-14T10:48:58;12.35;;;6.47;;
85691;SDS011;76122;47.806;18.914;2024-02-14T10:51:34;11.60;;;6.25;;
85691;SDS011;76122;47.806;18.914;2024-02-14T10:54:12;13.10;;;6.65;;
85691;SDS011;76122;47.806;18.914;2024-02-14T10:56:41;14.02;;;7.45;;
85691;SDS011;76122;47.806;18.914;2024-02-14T10:59:10;12.53;;;6.57;;
85691;SDS011;76122;47.806;18.914;2024-02-14T11:01:38;11.32;;;6.18;;
85691;SDS011;76122;47.806;18.914;2024-02-14T11:04:04;11.48;;;6.12;;
85691;SDS011;76122;47.806;18.914;2024-02-14T11:06:29;11.37;;;5.70;;
85691;SDS011;76122;47.806;18.914;2024-02-14T11:08:59;9.40;;;5.20;;
85691;SDS011;76122;47.806;18.914;2024-02-14T11:11:28;9.40;;;5.22;;
85691;SDS011;76122;47.806;18.914;2024-02-14T11:13:54;11.15;;;5.00;;
85691;SDS011;76122;47.806;18.914;2024-02-14T11:16:24;10.17;;;5.10;;
85691;SDS011;76122;47.806;18.914;2024-02-14T11:18:54;8.32;;;4.60;;
85691;SDS011;76122;47.806;18.914;2024-02-14T11:21:31;11.32;;;4.32;;
85691;SDS011;76122;47.806;18.914;2024-02-14T11:23:57;10.03;;;4.37;;
85691;SDS011;76122;47.806;18.914;2024-02-14T11:26:24;12.13;;;4.87;;
85691;SDS011;76122;47.806;18.914;2024-02-14T11:28:49;9.90;;;5.00;;
85691;SDS011;76122;47.806;18.914;2024-02-14T11:31:30;11.25;;;4.55;;
85691;SDS011;76122;47.806;18.914;2024-02-14T11:34:02;8.40;;;4.65;;
85691;SDS011;76122;47.806;18.914;2024-02-14T11:36:28;10.10;;;4.87;;
85691;SDS011;76122;47.806;18.914;2024-02-14T11:38:54;10.65;;;5.10;;
85691;SDS011;76122;47.806;18.914;2024-02-14T11:41:20;12.60;;;5.60;;
85691;SDS011;76122;47.806;18.914;2024-02-14T11:43:52;25.60;;;21.50;;
85691;SDS011;76122;47.806;18.914;2024-02-14T11:46:17;17.77;;;11.50;;
85691;SDS011;76122;47.806;18.914;2024-02-14T11:48:43;19.15;;;9.25;;
85691;SDS011;76122;47.806;18.914;2024-02-14T11:51:11;13.65;;;7.68;;
85691;SDS011;76122;47.806;18.914;2024-02-14T11:53:36;12.60;;;5.93;;
85691;SDS011;76122;47.806;18.914;2024-02-14T11:56:01;11.43;;;5.60;;
85691;SDS011;76122;47.806;18.914;2024-02-14T11:58:27;14.35;;;6.18;;
85691;SDS011;76122;47.806;18.914;2024-02-14T12:00:52;16.10;;;6.32;;
85691;SDS011;76122;47.806;18.914;2024-02-14T12:03:20;16.53;;;7.80;;
85691;SDS011;76122;47.806;18.914;2024-02-14T12:05:47;13.20;;;7.07;;
85691;SDS011;76122;47.806;18.914;2024-02-14T12:08:15;11.88;;;6.30;;
85691;SDS011;76122;47.806;18.914;2024-02-14T12:10:44;11.70;;;6.33;;
85691;SDS011;76122;47.806;18.914;2024-02-14T12:13:15;11.95;;;6.18;;
85691;SDS011;76122;47.806;18.914;2024-02-14T12:15:44;10.93;;;6.18;;
85691;SDS011;76122;47.806;18.914;2024-02-14T12:18:10;12.82;;;5.87;;
85691;SDS011;76122;47.806;18.914;2024-02-14T12:20:36;11.07;;;5.80;;
85691;SDS011;76122;47.806;18.914;2024-02-14T12:23:02;11.25;;;6.00;;
85691;SDS011;76122;47.806;18.914;2024-02-14T12:25:29;13.13;;;7.37;;
85691;SDS011;76122;47.806;18.914;2024-02-14T12:27:56;15.70;;;9.25;;
85691;SDS011;76122;47.806;18.914;2024-02-14T12:30:22;13.88;;;7.40;;
85691;SDS011;76122;47.806;18.914;2024-02-14T12:33:00;11.23;;;6.27;;
85691;SDS011;76122;47.806;18.914;2024-02-14T12:35:26;11.80;;;6.20;;
85691;SDS011;76122;47.806;18.914;2024-02-14T12:37:51;11.83;;;6.43;;
85691;SDS011;76122;47.806;18.914;2024-02-14T12:40:18;10.57;;;6.03;;
85691;SDS011;76122;47.806;18.914;2024-02-14T12:42:45;10.85;;;6.60;;
85691;SDS011;76122;47.806;18.914;2024-02-14T12:45:10;12.50;;;6.43;;
85691;SDS011;76122;47.806;18.914;2024-02-14T12:47:36;16.50;;;8.60;;
85691;SDS011;76122;47.806;18.914;2024-02-14T12:50:02;11.50;;;7.28;;
85691;SDS011;76122;47.806;18.914;2024-02-14T12:52:27;12.03;;;6.40;;
85691;SDS011;76122;47.806;18.914;2024-02-14T12:54:53;10.80;;;6.13;;
85691;SDS011;76122;47.806;18.914;2024-02-14T12:57:18;10.20;;;5.50;;
85691;SDS011;76122;47.806;18.914;2024-02-14T12:59:46;10.82;;;5.35;;
85691;SDS011;76122;47.806;18.914;2024-02-14T13:02:11;9.25;;;4.62;;
85691;SDS011;76122;47.806;18.914;2024-02-14T13:04:37;9.02;;;4.95;;
85691;SDS011;76122;47.806;18.914;2024-02-14T13:07:02;8.33;;;4.33;;
85691;SDS011;76122;47.806;18.914;2024-02-14T13:09:28;9.97;;;5.20;;
85691;SDS011;76122;47.806;18.914;2024-02-14T13:11:53;13.50;;;5.95;;
85691;SDS011;76122;47.806;18.914;2024-02-14T13:14:19;11.85;;;6.85;;
85691;SDS011;76122;47.806;18.914;2024-02-14T13:16:44;17.03;;;11.00;;
85691;SDS011;76122;47.806;18.914;2024-02-14T13:19:09;12.70;;;6.23;;
85691;SDS011;76122;47.806;18.914;2024-02-14T13:21:35;11.30;;;5.80;;
85691;SDS011;76122;47.806;18.914;2024-02-14T13:24:00;10.52;;;5.45;;
85691;SDS011;76122;47.806;18.914;2024-02-14T13:26:26;10.47;;;6.00;;
85691;SDS011;76122;47.806;18.914;2024-02-14T13:28:53;16.10;;;7.80;;
85691;SDS011;76122;47.806;18.914;2024-02-14T13:31:19;12.73;;;6.65;;
85691;SDS011;76122;47.806;18.914;2024-02-14T13:33:44;12.63;;;7.40;;
85691;SDS011;76122;47.806;18.914;2024-02-14T13:36:10;14.93;;;6.67;;
85691;SDS011;76122;47.806;18.914;2024-02-14T13:38:35;11.70;;;5.82;;
85691;SDS011;76122;47.806;18.914;2024-02-14T13:41:00;14.38;;;7.75;;
85691;SDS011;76122;47.806;18.914;2024-02-14T13:43:26;12.17;;;6.50;;
85691;SDS011;76122;47.806;18.914;2024-02-14T13:45:51;10.70;;;6.30;;
85691;SDS011;76122;47.806;18.914;2024-02-14T13:48:17;12.50;;;6.87;;
85691;SDS011;76122;47.806;18.914;2024-02-14T13:50:42;11.55;;;5.47;;
85691;SDS011;76122;47.806;18.914;2024-02-14T13:53:08;11.33;;;5.60;;
85691;SDS011;76122;47.806;18.914;2024-02-14T13:55:33;11.70;;;5.43;;
85691;SDS011;76122;47.806;18.914;2024-02-14T13:57:58;10.10;;;5.63;;
85691;SDS011;76122;47.806;18.914;2024-02-14T14:00:24;27.37;;;12.73;;
85691;SDS011;76122;47.806;18.914;2024-02-14T14:02:49;80.72;;;37.53;;
85691;SDS011;76122;47.806;18.914;2024-02-14T14:05:15;52.78;;;23.15;;
85691;SDS011;76122;47.806;18.914;2024-02-14T14:07:40;26.93;;;13.60;;
85691;SDS011;76122;47.806;18.914;2024-02-14T14:10:06;24.95;;;13.25;;
85691;SDS011;76122;47.806;18.914;2024-02-14T14:12:33;29.40;;;15.18;;
85691;SDS011;76122;47.806;18.914;2024-02-14T14:14:58;38.05;;;22.48;;
85691;SDS011;76122;47.806;18.914;2024-02-14T14:17:24;36.60;;;21.43;;
85691;SDS011;76122;47.806;18.914;2024-02-14T14:19:49;31.77;;;21.23;;
85691;SDS011;76122;47.806;18.914;2024-02-14T14:22:15;26.48;;;15.38;;
85691;SDS011;76122;47.806;18.914;2024-02-14T14:24:41;14.27;;;8.68;;
85691;SDS011;76122;47.806;18.914;2024-02-14T14:27:07;55.13;;;32.87;;
85691;SDS011;76122;47.806;18.914;2024-02-14T14:29:34;47.92;;;28.25;;
85691;SDS011;76122;47.806;18.914;2024-02-14T14:32:00;27.50;;;18.85;;
85691;SDS011;76122;47.806;18.914;2024-02-14T14:34:25;22.33;;;16.20;;
85691;SDS011;76122;47.806;18.914;2024-02-14T14:36:52;26.95;;;18.20;;
85691;SDS011;76122;47.806;18.914;2024-02-14T14:39:19;17.75;;;10.75;;
85691;SDS011;76122;47.806;18.914;2024-02-14T14:41:45;21.73;;;11.67;;
85691;SDS011;76122;47.806;18.914;2024-02-14T14:44:10;18.63;;;10.40;;
85691;SDS011;76122;47.806;18.914;2024-02-14T14:46:36;17.10;;;11.23;;
85691;SDS011;76122;47.806;18.914;2024-02-14T14:49:07;14.73;;;9.05;;
85691;SDS011;76122;47.806;18.914;2024-02-14T14:51:35;24.83;;;11.17;;
85691;SDS011;76122;47.806;18.914;2024-02-14T14:54:01;25.02;;;13.70;;
85691;SDS011;76122;47.806;18.914;2024-02-14T14:56:27;15.30;;;8.57;;
85691;SDS011;76122;47.806;18.914;2024-02-14T14:58:52;12.50;;;8.27;;
85691;SDS011;76122;47.806;18.914;2024-02-14T15:01:18;15.23;;;9.10;;
85691;SDS011;76122;47.806;18.914;2024-02-14T15:03:44;14.25;;;8.50;;
85691;SDS011;76122;47.806;18.914;2024-02-14T15:06:09;12.95;;;7.18;;
85691;SDS011;76122;47.806;18.914;2024-02-14T15:08:35;17.85;;;8.43;;
85691;SDS011;76122;47.806;18.914;2024-02-14T15:11:00;30.57;;;20.27;;
85691;SDS011;76122;47.806;18.914;2024-02-14T15:13:25;28.97;;;19.00;;
85691;SDS011;76122;47.806;18.914;2024-02-14T15:15:52;21.27;;;14.30;;
85691;SDS011;76122;47.806;18.914;2024-02-14T15:18:18;21.83;;;13.50;;
85691;SDS011;76122;47.806;18.914;2024-02-14T15:20:43;13.20;;;8.40;;
85691;SDS011;76122;47.806;18.914;2024-02-14T15:23:09;16.10;;;10.20;;
85691;SDS011;76122;47.806;18.914;2024-02-14T15:25:34;15.40;;;9.00;;
85691;SDS011;76122;47.806;18.914;2024-02-14T15:28:08;16.12;;;9.88;;
85691;SDS011;76122;47.806;18.914;2024-02-14T15:30:39;14.43;;;9.38;;
85691;SDS011;76122;47.806;18.914;2024-02-14T15:33:23;16.83;;;8.32;;
85691;SDS011;76122;47.806;18.914;2024-02-14T15:38:19;14.87;;;7.50;;
85691;SDS011;76122;47.806;18.914;2024-02-14T15:40:45;13.43;;;7.30;;
85691;SDS011;76122;47.806;18.914;2024-02-14T15:43:11;17.05;;;7.97;;
85691;SDS011;76122;47.806;18.914;2024-02-14T15:45:37;16.20;;;8.07;;
85691;SDS011;76122;47.806;18.914;2024-02-14T15:48:03;19.70;;;9.73;;
85691;SDS011;76122;47.806;18.914;2024-02-14T15:50:29;19.95;;;9.65;;
85691;SDS011;76122;47.806;18.914;2024-02-14T15:52:54;20.37;;;10.07;;
85691;SDS011;76122;47.806;18.914;2024-02-14T15:55:20;20.17;;;10.57;;
85691;SDS011;76122;47.806;18.914;2024-02-14T15:57:45;25.23;;;11.10;;
85691;SDS011;76122;47.806;18.914;2024-02-14T16:00:13;21.83;;;10.23;;
85691;SDS011;76122;47.806;18.914;2024-02-14T16:02:39;22.10;;;9.88;;
85691;SDS011;76122;47.806;18.914;2024-02-14T16:05:05;19.55;;;8.75;;
85691;SDS011;76122;47.806;18.914;2024-02-14T16:07:33;20.50;;;8.85;;
85691;SDS011;76122;47.806;18.914;2024-02-14T16:09:58;20.73;;;8.83;;
85691;SDS011;76122;47.806;18.914;2024-02-14T16:12:23;21.77;;;8.80;;
85691;SDS011;76122;47.806;18.914;2024-02-14T16:14:49;17.40;;;7.93;;
85691;SDS011;76122;47.806;18.914;2024-02-14T16:17:14;23.80;;;9.33;;
85691;SDS011;76122;47.806;18.914;2024-02-14T16:19:40;21.30;;;7.68;;
85691;SDS011;76122;47.806;18.914;2024-02-14T16:22:05;20.27;;;7.43;;
85691;SDS011;76122;47.806;18.914;2024-02-14T16:24:30;16.40;;;7.70;;
85691;SDS011;76122;47.806;18.914;2024-02-14T16:26:56;18.43;;;8.27;;
85691;SDS011;76122;47.806;18.914;2024-02-14T16:29:22;20.00;;;8.60;;
85691;SDS011;76122;47.806;18.914;2024-02-14T16:31:48;15.27;;;7.57;;
85691;SDS011;76122;47.806;18.914;2024-02-14T16:34:14;17.77;;;8.27;;
85691;SDS011;76122;47.806;18.914;2024-02-14T16:36:39;17.83;;;8.00;;
85691;SDS011;76122;47.806;18.914;2024-02-14T16:39:05;20.90;;;8.87;;
85691;SDS011;76122;47.806;18.914;2024-02-14T16:41:31;26.12;;;8.68;;
85691;SDS011;76122;47.806;18.914;2024-02-14T16:43:56;19.10;;;9.20;;
85691;SDS011;76122;47.806;18.914;2024-02-14T16:46:22;18.75;;;8.70;;
85691;SDS011;76122;47.806;18.914;2024-02-14T16:48:48;20.80;;;8.75;;
85691;SDS011;76122;47.806;18.914;2024-02-14T16:51:14;19.92;;;8.57;;
85691;SDS011;76122;47.806;18.914;2024-02-14T16:53:42;21.42;;;8.73;;
85691;SDS011;76122;47.806;18.914;2024-02-14T16:56:07;20.13;;;9.17;;
85691;SDS011;76122;47.806;18.914;2024-02-14T16:58:33;17.17;;;9.30;;
85691;SDS011;76122;47.806;18.914;2024-02-14T17:00:59;19.37;;;9.70;;
85691;SDS011;76122;47.806;18.914;2024-02-14T17:03:24;18.27;;;9.27;;
85691;SDS011;76122;47.806;18.914;2024-02-14T17:05:50;21.60;;;10.43;;
85691;SDS011;76122;47.806;18.914;2024-02-14T17:08:15;22.70;;;10.80;;
85691;SDS011;76122;47.806;18.914;2024-02-14T17:10:40;21.30;;;10.87;;
85691;SDS011;76122;47.806;18.914;2024-02-14T17:13:06;22.10;;;10.70;;
85691;SDS011;76122;47.806;18.914;2024-02-14T17:15:32;23.15;;;10.73;;
85691;SDS011;76122;47.806;18.914;2024-02-14T17:17:57;21.67;;;10.63;;
85691;SDS011;76122;47.806;18.914;2024-02-14T17:20:23;21.25;;;10.07;;
85691;SDS011;76122;47.806;18.914;2024-02-14T17:22:48;19.23;;;9.47;;
85691;SDS011;76122;47.806;18.914;2024-02-14T17:25:14;17.07;;;8.57;;
85691;SDS011;76122;47.806;18.914;2024-02-14T17:27:39;16.00;;;8.27;;
85691;SDS011;76122;47.806;18.914;2024-02-14T17:30:05;18.98;;;8.38;;
85691;SDS011;76122;47.806;18.914;2024-02-14T17:32:33;13.38;;;7.50;;
85691;SDS011;76122;47.806;18.914;2024-02-14T17:34:59;16.80;;;8.00;;
85691;SDS011;76122;47.806;18.914;2024-02-14T17:37:24;17.10;;;7.77;;
85691;SDS011;76122;47.806;18.914;2024-02-14T17:39:50;16.30;;;7.95;;
85691;SDS011;76122;47.806;18.914;2024-02-14T17:42:15;16.40;;;7.67;;
85691;SDS011;76122;47.806;18.914;2024-02-14T17:44:41;17.13;;;8.30;;
85691;SDS011;76122;47.806;18.914;2024-02-14T17:47:07;14.82;;;7.80;;
85691;SDS011;76122;47.806;18.914;2024-02-14T17:49:32;15.93;;;7.73;;
85691;SDS011;76122;47.806;18.914;2024-02-14T17:51:57;17.10;;;8.23;;
85691;SDS011;76122;47.806;18.914;2024-02-14T17:54:23;18.52;;;9.82;;
85691;SDS011;76122;47.806;18.914;2024-02-14T17:56:49;18.33;;;10.20;;
85691;SDS011;76122;47.806;18.914;2024-02-14T17:59:14;18.67;;;9.80;;
85691;SDS011;76122;47.806;18.914;2024-02-14T18:01:40;20.17;;;11.33;;
85691;SDS011;76122;47.806;18.914;2024-02-14T18:04:07;22.45;;;12.75;;
85691;SDS011;76122;47.806;18.914;2024-02-14T18:06:34;26.00;;;12.70;;
85691;SDS011;76122;47.806;18.914;2024-02-14T18:09:00;25.77;;;12.60;;
85691;SDS011;76122;47.806;18.914;2024-02-14T18:11:26;24.12;;;12.65;;
85691;SDS011;76122;47.806;18.914;2024-02-14T18:13:51;22.37;;;11.83;;
85691;SDS011;76122;47.806;18.914;2024-02-14T18:16:19;22.40;;;11.85;;
85691;SDS011;76122;47.806;18.914;2024-02-14T18:18:45;24.30;;;11.50;;
85691;SDS011;76122;47.806;18.914;2024-02-14T18:21:11;22.25;;;12.18;;
85691;SDS011;76122;47.806;18.914;2024-02-14T18:23:38;18.23;;;11.15;;
85691;SDS011;76122;47.806;18.914;2024-02-14T18:26:03;21.33;;;11.10;;
85691;SDS011;76122;47.806;18.914;2024-02-14T18:28:29;23.00;;;10.32;;
85691;SDS011;76122;47.806;18.914;2024-02-14T18:30:56;17.13;;;9.53;;
85691;SDS011;76122;47.806;18.914;2024-02-14T18:33:22;17.77;;;9.63;;
85691;SDS011;76122;47.806;18.914;2024-02-14T18:35:48;20.13;;;9.93;;
85691;SDS011;76122;47.806;18.914;2024-02-14T18:38:13;19.00;;;10.32;;
85691;SDS011;76122;47.806;18.914;2024-02-14T18:40:38;18.80;;;11.20;;
85691;SDS011;76122;47.806;18.914;2024-02-14T18:43:05;18.80;;;10.60;;
85691;SDS011;76122;47.806;18.914;2024-02-14T18:45:31;17.92;;;9.68;;
85691;SDS011;76122;47.806;18.914;2024-02-14T18:47:56;16.13;;;8.90;;
85691;SDS011;76122;47.806;18.914;2024-02-14T18:50:22;16.93;;;9.27;;
85691;SDS011;76122;47.806;18.914;2024-02-14T18:52:47;18.70;;;9.50;;
85691;SDS011;76122;47.806;18.914;2024-02-14T18:55:15;17.12;;;9.50;;
85691;SDS011;76122;47.806;18.914;2024-02-14T18:57:44;16.67;;;9.50;;
85691;SDS011;76122;47.806;18.914;2024-02-14T19:00:09;16.43;;;8.63;;
85691;SDS011;76122;47.806;18.914;2024-02-14T19:02:36;16.30;;;8.77;;
85691;SDS011;76122;47.806;18.914;2024-02-14T19:05:02;16.48;;;9.32;;
85691;SDS011;76122;47.806;18.914;2024-02-14T19:07:28;22.00;;;10.68;;
85691;SDS011;76122;47.806;18.914;2024-02-14T19:09:54;21.07;;;10.30;;
85691;SDS011;76122;47.806;18.914;2024-02-14T19:12:19;20.00;;;10.73;;
85691;SDS011;76122;47.806;18.914;2024-02-14T19:14:45;18.67;;;9.93;;
85691;SDS011;76122;47.806;18.914;2024-02-14T19:17:14;17.60;;;9.52;;
85691;SDS011;76122;47.806;18.914;2024-02-14T19:19:39;17.30;;;8.90;;
85691;SDS011;76122;47.806;18.914;2024-02-14T19:22:05;16.40;;;9.00;;
85691;SDS011;76122;47.806;18.914;2024-02-14T19:24:31;15.63;;;8.50;;
85691;SDS011;76122;47.806;18.914;2024-02-14T19:26:56;14.93;;;9.20;;
85691;SDS011;76122;47.806;18.914;2024-02-14T19:29:22;16.27;;;9.30;;
85691;SDS011;76122;47.806;18.914;2024-02-14T19:31:49;17.00;;;10.32;;
85691;SDS011;76122;47.806;18.914;2024-02-14T19:34:15;18.63;;;10.10;;
85691;SDS011;76122;47.806;18.914;2024-02-14T19:36:40;18.43;;;10.30;;
85691;SDS011;76122;47.806;18.914;2024-02-14T19:39:05;16.60;;;10.32;;
85691;SDS011;76122;47.806;18.914;2024-02-14T19:41:31;19.35;;;10.52;;
85691;SDS011;76122;47.806;18.914;2024-02-14T19:43:57;18.60;;;11.07;;
85691;SDS011;76122;47.806;18.914;2024-02-14T19:46:22;23.07;;;12.67;;
85691;SDS011;76122;47.806;18.914;2024-02-14T19:48:48;18.55;;;11.27;;